CYTHCYYQ

Guest
Details From CYTH - Thompson
To CYYQ - Churchill
Flight Number -
Tags Generated
Created
Modified
Stats Distance 215 nm / 399 km
Max Altitude 0 ft / 0 m
Waypoints 2
Social Downloads 1
Likes 0
Share VATSIM

Download

Looking for another format? Having issues loading an existing format? Contact us
Advertisement - Login to hide

Notes

Generated

Route

CYTH CYYQ

ID Type Via Altitude Latitude Longitude Leg Dist Tot Dist Heading (true) Name
O CYTH APT - 0 ft / 0 m 55.80611˚ -97.85944˚ - 0 nm - -
O CYYQ APT - 0 ft / 0 m 58.75167˚ -94.07111˚ 215 nm 215 nm 33° / 36° -

Altitude Profile

Advertisement - Login to hide

Weather


0- 5 10 15 20 25 30 35+ Temperature / ° C

Clouds and Precipitation
Forecast for 2017-12-16 00:00 UTC. Updated 7 minutes ago

Ground ~20,000 ft ~40,000 ft Winds

CYTH

Details ICAO CYTH (YTH)
Name THOMPSON
Region Canada
Timezone America/Winnipeg (UTC-6.0)
Stats Elevation 729 ft / 222 m (AMSL)
Location 55.801728° -97.859472°
Runways 2
Magnetic Variation 2.902° E

METAR

CYTH 152300Z 06002KT 15SM BKN210 M28/M31 A2986 RMK CI5 SLP146

Decode

TAF

TAF TAF CYTH 151838Z 1519/1607 VRB03KT P6SM SCT030 TEMPO 1519/1520 BKN030 FM160600 VRB03KT P6SM BKN140 RMK NXT FCST BY 160100Z

Decode

Departure Runways

ID Width Length Bearing (true) Bearing (mag) Surface Threshold Offset Overrun Length
05 150 ft / 46 m 5,786 ft / 1,764 m 60.93° 58.03° Asphalt 0 ft / 0 m 0 ft / 0 m
14 100 ft / 30 m 2,441 ft / 744 m 150.67° 147.77° Gravel 0 ft / 0 m 0 ft / 0 m
23 150 ft / 46 m 5,786 ft / 1,764 m 240.96° 238.06° Asphalt 0 ft / 0 m 0 ft / 0 m
32 100 ft / 30 m 2,441 ft / 744 m 330.68° 327.78° Gravel 0 ft / 0 m 0 ft / 0 m

CYYQ

Details ICAO CYYQ (YYQ)
Name CHURCHILL
Region Canada
Timezone America/Winnipeg (UTC-6.0)
Stats Elevation 94 ft / 29 m (AMSL)
Location 58.743971° -94.063864°
Runways 2
Magnetic Variation 2.069° W

METAR

CYYQ 152300Z 30008KT 2 1/2SM -SN BR OVC005 M24/M27 A2996 RMK FG2ST6 FROIN SLP152

Decode

TAF

TAF AMD CYYQ 152109Z 1521/1618 29008KT 3SM -SN BR OVC005 TEMPO 1521/1602 P6SM -SN OVC010 FM160200 25006KT P6SM SCT010 TEMPO 1602/1618 P6SM -SN BKN010 RMK NXT FCST BY 160000Z

Decode

Destination Runways

ID Width Length Bearing (true) Bearing (mag) Surface Threshold Offset Overrun Length
07 100 ft / 30 m 3,988 ft / 1,215 m 70.97° 73.04° Gravel 0 ft / 0 m 0 ft / 0 m
15 160 ft / 49 m 9,178 ft / 2,797 m 152.64° 154.71° Asphalt 0 ft / 0 m 0 ft / 0 m
25 100 ft / 30 m 3,988 ft / 1,215 m 250.99° 253.06° Gravel 0 ft / 0 m 0 ft / 0 m
33 160 ft / 49 m 9,178 ft / 2,797 m 332.66° 334.73° Asphalt 0 ft / 0 m 0 ft / 0 m